Latest Weather Observations for Scoresby

IDV60801

Issued at 8:35 pm EST Saturday 26 July 2014 (issued every 30 minutes, with the page automatically refreshed every 10 minutes)

About weather observations | Map of weather stations | Latest weather observations for VIC | Other Formats
Station Details ID: 086104 Name: SCORESBY RESEARCH INSTITUTE Lat: -37.87 Lon: 145.26 Height: 80.0 m
Data from the previous 72 hours. | See also: Recent months at Scoresby
Date/Time
EST
Temp
°C
App
Temp
°C
Dew
Point
Rel
Hum
%
Delta-T
°C
Wind Press
QNH
hPa
Press
MSL
hPa
Rain
since 9 am
mm
Dir
 
Spd
km/h
Gust
km/h
Spd
kts
Gust
kts
26/08:30pm 11.0 11.0 9.9 93 0.6 NW 0 2 0 1 - - 3.0
26/08:00pm 11.0 10.6 9.9 93 0.6 N 2 4 1 2 - - 3.0
26/07:30pm 11.0 10.3 10.1 94 0.5 N 4 6 2 3 - - 3.0
26/07:00pm 10.9 10.9 9.8 93 0.6 CALM 0 0 0 0 - - 3.0
26/06:30pm 11.2 10.9 10.0 92 0.6 W 2 6 1 3 - - 3.0
26/06:00pm 11.3 9.6 9.9 91 0.7 W 9 15 5 8 - - 2.8
26/05:30pm 11.1 9.4 9.7 91 0.7 W 9 20 5 11 - - 2.8
26/05:00pm 11.3 9.3 10.0 92 0.7 W 11 24 6 13 - - 2.8
26/04:30pm 11.7 9.3 10.1 90 0.8 WSW 13 20 7 11 - - 2.2
26/04:00pm 12.7 12.8 10.2 85 1.3 CALM 0 4 0 2 - - 1.2
26/03:30pm 12.8 12.1 10.2 84 1.3 NW 4 9 2 5 - - 1.0
26/03:00pm 12.4 11.8 10.3 87 1.1 WNW 4 7 2 4 - - 1.0
26/02:30pm 12.4 11.1 10.0 85 1.2 WNW 7 15 4 8 - - 1.0
26/02:00pm 12.1 12.3 10.5 90 0.8 CALM 0 0 0 0 - - 1.0
26/01:30pm 11.9 12.0 10.3 90 0.8 CALM 0 0 0 0 - - 1.0
26/01:00pm 12.0 11.3 10.2 89 0.9 NW 4 7 2 4 - - 1.0
26/12:30pm 12.8 11.4 8.9 77 2.0 WNW 6 13 3 7 - - 0.2
26/12:00pm 13.4 12.0 8.9 74 2.3 NW 6 11 3 6 - - 0.2
26/11:30am 13.2 11.7 9.3 77 2.0 WNW 7 15 4 8 - - 0.2
26/11:00am 12.9 11.5 9.5 80 1.7 WNW 7 13 4 7 - - 0.2
26/10:30am 11.9 11.5 9.8 87 1.1 N 2 6 1 3 - - 0.2
26/10:00am 11.6 10.3 9.3 86 1.2 NNE 6 9 3 5 - - 0.0
26/09:30am 11.3 9.8 9.2 87 1.1 NNE 7 13 4 7 - - 0.0
26/09:00am 11.2 10.0 9.5 89 0.9 NNE 6 9 3 5 - - 1.0
26/08:30am 10.9 9.6 9.3 90 0.8 NNE 6 7 3 4 - - 1.0
26/08:00am 10.8 9.9 9.2 90 0.8 NNE 4 7 2 4 - - 1.0
26/07:30am 10.7 9.8 9.3 91 0.7 NNE 4 7 2 4 - - 1.0
26/07:00am 10.7 9.4 9.1 90 0.8 NNE 6 9 3 5 - - 0.8
26/06:30am 10.8 9.3 9.2 90 0.8 NNE 7 9 4 5 - - 0.8
26/06:00am 11.0 9.5 9.1 88 0.9 NNE 7 13 4 7 - - 0.6
26/05:30am 11.0 9.7 9.1 88 0.9 N 6 11 3 6 - - 0.4
26/05:00am 11.3 9.7 8.9 85 1.2 N 7 17 4 9 - - 0.4
26/04:30am 11.8 9.8 8.6 81 1.6 N 9 17 5 9 - - 0.2
26/04:00am 11.8 10.1 8.5 80 1.6 N 7 15 4 8 - - 0.2
26/03:30am 11.8 9.8 8.6 81 1.6 N 9 17 5 9 - - 0.2
26/03:00am 11.7 10.1 8.7 82 1.5 N 7 13 4 7 - - 0.2
26/02:30am 11.7 10.1 8.9 83 1.4 NNE 7 13 4 7 - - 0.2
26/02:00am 11.7 10.1 8.9 83 1.4 NNE 7 11 4 6 - - 0.2
26/01:30am 11.8 10.2 8.8 82 1.5 NNE 7 9 4 5 - - 0.2
26/01:00am 12.0 10.5 9.0 82 1.5 NNE 7 11 4 6 - - 0.2
26/12:30am 11.8 10.3 9.2 84 1.3 NNE 7 9 4 5 - - 0.2
26/12:00am 12.0 10.5 9.2 83 1.4 NNE 7 9 4 5 - - 0.2
 
Date/Time
EST
Temp
°C
App
Temp
°C
Dew
Point
Rel
Hum
%
Delta-T
°C
Wind Press
QNH
hPa
Press
MSL
hPa
Rain
since 9 am
mm
Dir
 
Spd
km/h
Gust
km/h
Spd
kts
Gust
kts
25/11:30pm 12.0 10.6 9.4 84 1.3 NNE 7 11 4 6 - - 0.2
25/11:00pm 11.9 10.6 9.3 84 1.3 NNE 6 9 3 5 - - 0.2
25/10:30pm 12.1 10.7 9.5 84 1.3 NNE 7 11 4 6 - - 0.2
25/10:00pm 12.1 10.7 9.5 84 1.3 NNE 7 13 4 7 - - 0.2
25/09:30pm 12.5 11.0 9.1 80 1.7 NNE 7 11 4 6 - - 0.2
25/09:00pm 12.4 10.9 9.1 80 1.7 NNE 7 11 4 6 - - 0.2
25/08:30pm 12.2 10.7 9.2 82 1.5 NNE 7 11 4 6 - - 0.2
25/08:00pm 12.1 10.3 9.3 83 1.4 NE 9 15 5 8 - - 0.2
25/07:30pm 12.4 10.9 9.1 80 1.7 NNE 7 9 4 5 - - 0.2
25/07:00pm 13.0 11.0 8.7 75 2.2 NNE 9 13 5 7 - - 0.2
25/06:30pm 13.5 11.1 8.8 73 2.4 N 11 24 6 13 - - 0.2
25/06:00pm 13.7 12.1 8.7 72 2.5 N 7 13 4 7 - - 0.2
25/05:30pm 14.0 11.2 8.6 70 2.7 N 13 26 7 14 - - 0.2
25/05:00pm 14.5 12.1 8.5 67 3.0 N 11 24 6 13 - - 0.2
25/04:30pm 14.6 11.7 8.3 66 3.2 N 13 30 7 16 - - 0.2
25/04:00pm 14.6 12.1 8.3 66 3.2 N 11 20 6 11 - - 0.2
25/03:30pm 14.8 11.9 8.3 65 3.3 N 13 22 7 12 - - 0.0
25/03:00pm 14.5 10.9 8.5 67 3.0 N 17 28 9 15 - - 0.0
25/02:30pm 14.7 11.0 8.0 64 3.4 NNW 17 30 9 16 - - 0.0
25/02:00pm 15.1 10.9 8.1 63 3.5 N 20 33 11 18 - - 0.0
25/01:30pm 14.8 11.2 8.5 66 3.2 N 17 32 9 17 - - 0.0
25/01:00pm 14.6 11.8 8.5 67 3.1 N 13 28 7 15 - - 0.0
25/12:30pm 14.2 11.8 8.6 69 2.8 NNW 11 22 6 12 - - 0.0
25/12:00pm 14.4 11.6 8.6 68 2.9 NNW 13 28 7 15 - - 0.0
25/11:30am 14.3 11.5 8.7 69 2.8 N 13 26 7 14 - - 0.0
25/11:00am 14.2 11.7 8.4 68 2.9 N 11 22 6 12 - - 0.0
25/10:30am 14.4 11.2 8.6 68 2.9 N 15 28 8 15 - - 0.0
25/10:00am 13.5 10.7 8.4 71 2.6 N 13 22 7 12 - - 0.0
25/09:30am 12.6 10.2 8.7 77 2.0 NNE 11 17 6 9 - - 0.0
25/09:00am 12.1 9.3 8.4 78 1.8 NNE 13 24 7 13 - - 0.0
25/08:30am 12.0 8.8 8.5 79 1.7 NNE 15 22 8 12 - - 0.0
25/08:00am 11.2 8.7 8.2 82 1.5 NNE 11 17 6 9 - - 0.0
25/07:30am 11.0 7.7 8.1 82 1.4 NE 15 24 8 13 - - 0.0
25/07:00am 11.1 7.8 8.0 81 1.5 NNE 15 22 8 12 - - 0.0
25/06:30am 11.6 8.3 8.1 79 1.7 NNE 15 20 8 11 - - 0.0
25/06:00am 11.4 8.5 8.3 81 1.5 NNE 13 20 7 11 - - 0.0
25/05:30am 11.6 9.0 7.9 78 1.8 NNE 11 20 6 11 - - 0.0
25/05:00am 11.9 9.6 7.6 75 2.1 NNE 9 20 5 11 - - 0.0
25/04:30am 12.1 9.8 7.6 74 2.2 NNE 9 17 5 9 - - 0.0
25/04:00am 12.0 9.8 7.7 75 2.1 NNE 9 19 5 10 - - 0.0
25/03:30am 12.1 9.5 7.6 74 2.2 NNE 11 17 6 9 - - 0.0
25/03:00am 12.6 9.3 7.9 73 2.3 NNE 15 22 8 12 - - 0.0
25/02:30am 12.5 9.5 7.6 72 2.4 NNE 13 20 7 11 - - 0.0
25/02:00am 12.4 9.4 7.5 72 2.4 NNE 13 19 7 10 - - 0.0
25/01:30am 12.3 10.0 7.4 72 2.4 NNE 9 13 5 7 - - 0.0
25/01:00am 12.3 9.6 7.2 71 2.5 NNE 11 17 6 9 - - 0.0
25/12:30am 12.8 9.6 7.0 68 2.8 NNE 13 20 7 11 - - 0.0
25/12:00am 13.0 9.8 6.8 66 3.0 NNE 13 26 7 14 - - 0.0
 
Date/Time
EST
Temp
°C
App
Temp
°C
Dew
Point
Rel
Hum
%
Delta-T
°C
Wind Press
QNH
hPa
Press
MSL
hPa
Rain
since 9 am
mm
Dir
 
Spd
km/h
Gust
km/h
Spd
kts
Gust
kts
24/11:30pm 12.7 10.1 6.1 64 3.1 NNE 9 19 5 10 - - 0.0
24/11:00pm 12.4 10.3 5.8 64 3.1 NNE 6 9 3 5 - - 0.0
24/10:30pm 12.7 10.0 5.6 62 3.3 NNE 9 17 5 9 - - 0.0
24/10:00pm 12.9 10.1 5.3 60 3.5 N 9 15 5 8 - - 0.0
24/09:30pm 13.1 9.9 5.3 59 3.6 NNE 11 19 6 10 - - 0.0
24/09:00pm 13.2 10.1 5.4 59 3.7 NNE 11 17 6 9 - - 0.0
24/08:30pm 13.3 9.7 5.2 58 3.8 NE 13 20 7 11 - - 0.0
24/08:00pm 13.1 9.9 5.3 59 3.6 NNE 11 17 6 9 - - 0.0
24/07:30pm 10.3 8.9 5.3 71 2.3 NE 2 6 1 3 - - 0.0
24/07:00pm 9.1 7.8 4.3 72 2.1 CALM 0 0 0 0 - - 0.0
24/06:30pm 10.9 9.7 4.8 66 2.8 CALM 0 7 0 4 - - 0.0
24/06:00pm 13.2 11.0 5.4 59 3.7 NE 6 13 3 7 - - 0.0
24/05:30pm 13.3 11.7 6.2 62 3.4 E 4 9 2 5 - - 0.0
24/05:00pm 13.4 11.3 6.5 63 3.3 NE 7 15 4 8 - - 0.0
24/04:30pm 13.1 10.7 7.1 67 2.9 NE 9 15 5 8 - - 0.0
24/04:00pm 13.3 10.5 7.1 66 3.0 NNE 11 19 6 10 - - 0.0
24/03:30pm 13.6 11.6 6.9 64 3.3 NNE 7 13 4 7 - - 0.0
24/03:00pm 14.0 10.9 7.1 63 3.4 NNE 13 22 7 12 - - 0.0
24/02:30pm 14.7 10.8 7.0 60 3.8 NNE 17 30 9 16 - - 0.0
24/02:00pm 14.6 11.1 7.2 61 3.6 NNE 15 22 8 12 - - 0.0
24/01:30pm 14.1 10.2 7.2 63 3.4 NE 17 26 9 14 - - 0.0
24/01:00pm 13.3 9.3 6.6 64 3.2 NE 17 26 9 14 - - 0.0
24/12:30pm 12.7 9.4 6.3 65 3.0 NNE 13 22 7 12 - - 0.0
24/12:00pm 11.8 8.8 5.9 67 2.8 NE 11 19 6 10 - - 0.0
24/11:30am 11.8 9.1 5.4 65 3.0 NE 9 17 5 9 - - 0.0
24/11:00am 11.4 8.5 4.8 64 3.0 NNE 9 13 5 7 - - 0.0
24/10:30am 10.7 8.4 4.8 67 2.7 N 6 13 3 7 - - 0.0
24/10:00am 10.1 7.8 4.7 69 2.4 NE 6 9 3 5 - - 0.0
24/09:30am 10.3 7.9 4.5 67 2.6 NNE 6 11 3 6 - - 0.0
24/09:00am 9.9 7.5 4.3 68 2.5 NE 6 9 3 5 - - 0.0
24/08:30am 9.5 8.3 4.5 71 2.2 CALM 0 6 0 3 - - 0.0
24/08:00am 9.2 6.6 4.2 71 2.2 NE 7 13 4 7 - - 0.0
24/07:30am 8.5 5.5 3.9 73 2.0 NE 9 13 5 7 - - 0.0
24/07:00am 8.4 6.6 3.7 72 2.0 N 2 7 1 4 - - 0.0
24/06:30am 8.4 5.3 3.7 72 2.0 NE 9 15 5 8 - - 0.0
24/06:00am 8.2 5.5 3.7 73 1.9 NE 7 13 4 7 - - 0.0
24/05:30am 8.0 5.5 3.7 74 1.9 N 6 13 3 7 - - 0.0
24/05:00am 7.8 5.2 4.0 77 1.6 N 7 17 4 9 - - 0.0
24/04:30am 5.8 3.3 4.6 92 0.5 NNE 7 13 4 7 - - 0.0
24/04:00am 4.9 3.6 4.0 94 0.4 CALM 0 4 0 2 - - 0.0
24/03:30am 4.7 3.4 4.0 95 0.3 CALM 0 4 0 2 - - 0.0
24/03:00am 4.6 3.3 4.0 96 0.3 CALM 0 0 0 0 - - 0.0
24/02:30am 4.0 2.6 3.4 96 0.2 CALM 0 0 0 0 - - 0.0
24/02:00am 2.3 0.6 1.6 95 0.3 CALM 0 4 0 2 - - 0.0
24/01:30am 2.0 0.2 1.3 95 0.3 CALM 0 0 0 0 - - 0.0
24/01:00am 2.4 0.7 1.7 95 0.3 CALM 0 0 0 0 - - 0.0
24/12:30am 3.0 1.4 2.3 95 0.3 CALM 0 0 0 0 - - 0.0
24/12:00am 3.2 1.6 2.5 95 0.3 CALM 0 0 0 0 - - 0.0
 
Date/Time
EST
Temp
°C
App
Temp
°C
Dew
Point
Rel
Hum
%
Delta-T
°C
Wind Press
QNH
hPa
Press
MSL
hPa
Rain
since 9 am
mm
Dir
 
Spd
km/h
Gust
km/h
Spd
kts
Gust
kts
23/11:30pm 3.2 1.6 2.3 94 0.4 CALM 0 0 0 0 - - 0.0
23/11:00pm 3.9 2.4 3.0 94 0.4 CALM 0 0 0 0 - - 0.0
23/10:30pm 4.2 2.8 3.3 94 0.4 CALM 0 0 0 0 - - 0.0
23/10:00pm 5.0 3.7 4.1 94 0.4 CALM 0 0 0 0 - - 0.0
23/09:30pm 4.8 3.4 3.8 93 0.4 CALM 0 0 0 0 - - 0.0
23/09:00pm 5.4 4.1 4.2 92 0.5 CALM 0 0 0 0 - - 0.0

Other Formats:

Comma delimited format used in spreadsheet applications
http://www.bom.gov.au/fwo/IDV60801/IDV60801.95867.axf

JavaScript Object Notation format (JSON) in row-major order
http://www.bom.gov.au/fwo/IDV60801/IDV60801.95867.json